sensor_id;sensor_type;location;lat;lon;timestamp;P1;durP1;ratioP1;P2;durP2;ratioP2
80677;SDS011;70042;52.494;5.502;2023-11-21T00:00:55;5.03;;;3.17;;
80677;SDS011;70042;52.494;5.502;2023-11-21T00:03:20;6.45;;;3.50;;
80677;SDS011;70042;52.494;5.502;2023-11-21T00:05:48;7.82;;;3.78;;
80677;SDS011;70042;52.494;5.502;2023-11-21T00:08:14;5.70;;;3.40;;
80677;SDS011;70042;52.494;5.502;2023-11-21T00:10:39;5.72;;;3.58;;
80677;SDS011;70042;52.494;5.502;2023-11-21T00:13:05;7.20;;;3.60;;
80677;SDS011;70042;52.494;5.502;2023-11-21T00:15:32;9.05;;;3.97;;
80677;SDS011;70042;52.494;5.502;2023-11-21T00:17:57;5.60;;;3.05;;
80677;SDS011;70042;52.494;5.502;2023-11-21T00:20:23;5.22;;;3.30;;
80677;SDS011;70042;52.494;5.502;2023-11-21T00:22:49;6.57;;;3.70;;
80677;SDS011;70042;52.494;5.502;2023-11-21T00:25:14;5.65;;;2.95;;
80677;SDS011;70042;52.494;5.502;2023-11-21T00:27:42;5.28;;;3.67;;
80677;SDS011;70042;52.494;5.502;2023-11-21T00:30:08;6.55;;;3.38;;
80677;SDS011;70042;52.494;5.502;2023-11-21T00:35:02;4.53;;;2.95;;
80677;SDS011;70042;52.494;5.502;2023-11-21T00:37:28;5.63;;;3.00;;
80677;SDS011;70042;52.494;5.502;2023-11-21T00:39:54;4.82;;;3.22;;
80677;SDS011;70042;52.494;5.502;2023-11-21T00:42:21;4.57;;;3.03;;
80677;SDS011;70042;52.494;5.502;2023-11-21T00:44:47;5.68;;;3.33;;
80677;SDS011;70042;52.494;5.502;2023-11-21T00:47:12;6.13;;;3.63;;
80677;SDS011;70042;52.494;5.502;2023-11-21T00:49:38;4.60;;;2.85;;
80677;SDS011;70042;52.494;5.502;2023-11-21T00:52:04;6.38;;;3.53;;
80677;SDS011;70042;52.494;5.502;2023-11-21T00:54:30;4.75;;;3.15;;
80677;SDS011;70042;52.494;5.502;2023-11-21T00:56:55;6.07;;;3.50;;
80677;SDS011;70042;52.494;5.502;2023-11-21T00:59:23;6.50;;;3.75;;
80677;SDS011;70042;52.494;5.502;2023-11-21T01:01:49;3.90;;;2.92;;
80677;SDS011;70042;52.494;5.502;2023-11-21T01:04:15;5.32;;;3.65;;
80677;SDS011;70042;52.494;5.502;2023-11-21T01:06:40;6.75;;;3.20;;
80677;SDS011;70042;52.494;5.502;2023-11-21T01:09:06;5.13;;;3.42;;
80677;SDS011;70042;52.494;5.502;2023-11-21T01:11:34;5.90;;;2.97;;
80677;SDS011;70042;52.494;5.502;2023-11-21T01:14:02;6.20;;;3.05;;
80677;SDS011;70042;52.494;5.502;2023-11-21T01:16:29;3.92;;;3.10;;
80677;SDS011;70042;52.494;5.502;2023-11-21T01:18:55;6.40;;;3.20;;
80677;SDS011;70042;52.494;5.502;2023-11-21T01:21:21;4.78;;;2.97;;
80677;SDS011;70042;52.494;5.502;2023-11-21T01:23:48;5.07;;;3.13;;
80677;SDS011;70042;52.494;5.502;2023-11-21T01:26:13;5.53;;;3.03;;
80677;SDS011;70042;52.494;5.502;2023-11-21T01:28:38;5.43;;;3.40;;
80677;SDS011;70042;52.494;5.502;2023-11-21T01:31:04;4.28;;;3.03;;
80677;SDS011;70042;52.494;5.502;2023-11-21T01:33:29;3.50;;;2.33;;
80677;SDS011;70042;52.494;5.502;2023-11-21T01:35:56;5.05;;;3.30;;
80677;SDS011;70042;52.494;5.502;2023-11-21T01:38:21;5.47;;;3.58;;
80677;SDS011;70042;52.494;5.502;2023-11-21T01:40:47;5.97;;;3.13;;
80677;SDS011;70042;52.494;5.502;2023-11-21T01:43:13;5.10;;;3.08;;
80677;SDS011;70042;52.494;5.502;2023-11-21T01:45:38;5.72;;;3.10;;
80677;SDS011;70042;52.494;5.502;2023-11-21T01:48:04;4.93;;;2.90;;
80677;SDS011;70042;52.494;5.502;2023-11-21T01:50:32;5.25;;;2.67;;
80677;SDS011;70042;52.494;5.502;2023-11-21T01:52:58;5.60;;;3.03;;
80677;SDS011;70042;52.494;5.502;2023-11-21T01:55:26;4.75;;;2.80;;
80677;SDS011;70042;52.494;5.502;2023-11-21T01:57:52;6.85;;;3.15;;
80677;SDS011;70042;52.494;5.502;2023-11-21T02:00:19;4.55;;;2.60;;
80677;SDS011;70042;52.494;5.502;2023-11-21T02:05:11;4.47;;;2.80;;
80677;SDS011;70042;52.494;5.502;2023-11-21T02:07:41;6.15;;;3.20;;
80677;SDS011;70042;52.494;5.502;2023-11-21T02:10:10;4.00;;;3.25;;
80677;SDS011;70042;52.494;5.502;2023-11-21T02:12:39;6.18;;;3.08;;
80677;SDS011;70042;52.494;5.502;2023-11-21T02:15:05;5.00;;;2.72;;
80677;SDS011;70042;52.494;5.502;2023-11-21T02:17:38;4.80;;;2.95;;
80677;SDS011;70042;52.494;5.502;2023-11-21T02:20:03;5.07;;;2.75;;
80677;SDS011;70042;52.494;5.502;2023-11-21T02:22:31;4.82;;;2.60;;
80677;SDS011;70042;52.494;5.502;2023-11-21T02:25:02;4.60;;;2.45;;
80677;SDS011;70042;52.494;5.502;2023-11-21T02:27:28;6.68;;;2.78;;
80677;SDS011;70042;52.494;5.502;2023-11-21T02:29:54;6.32;;;2.72;;
80677;SDS011;70042;52.494;5.502;2023-11-21T02:32:19;5.15;;;2.80;;
80677;SDS011;70042;52.494;5.502;2023-11-21T02:34:53;4.00;;;2.80;;
80677;SDS011;70042;52.494;5.502;2023-11-21T02:37:21;3.88;;;2.90;;
80677;SDS011;70042;52.494;5.502;2023-11-21T02:39:46;4.78;;;2.78;;
80677;SDS011;70042;52.494;5.502;2023-11-21T02:42:12;4.85;;;3.00;;
80677;SDS011;70042;52.494;5.502;2023-11-21T02:44:37;3.88;;;2.95;;
80677;SDS011;70042;52.494;5.502;2023-11-21T02:47:03;3.65;;;2.63;;
80677;SDS011;70042;52.494;5.502;2023-11-21T02:49:29;4.53;;;3.10;;
80677;SDS011;70042;52.494;5.502;2023-11-21T02:51:54;5.45;;;2.58;;
80677;SDS011;70042;52.494;5.502;2023-11-21T02:54:20;4.05;;;2.92;;
80677;SDS011;70042;52.494;5.502;2023-11-21T02:56:47;5.28;;;2.78;;
80677;SDS011;70042;52.494;5.502;2023-11-21T02:59:14;3.67;;;2.35;;
80677;SDS011;70042;52.494;5.502;2023-11-21T03:01:40;3.72;;;2.47;;
80677;SDS011;70042;52.494;5.502;2023-11-21T03:04:06;4.35;;;2.60;;
80677;SDS011;70042;52.494;5.502;2023-11-21T03:06:32;3.85;;;2.38;;
80677;SDS011;70042;52.494;5.502;2023-11-21T03:08:57;6.35;;;2.60;;
80677;SDS011;70042;52.494;5.502;2023-11-21T03:11:22;3.55;;;2.13;;
80677;SDS011;70042;52.494;5.502;2023-11-21T03:13:48;5.70;;;2.70;;
80677;SDS011;70042;52.494;5.502;2023-11-21T03:16:14;3.08;;;2.22;;
80677;SDS011;70042;52.494;5.502;2023-11-21T03:18:40;5.68;;;2.58;;
80677;SDS011;70042;52.494;5.502;2023-11-21T03:21:06;4.80;;;2.20;;
80677;SDS011;70042;52.494;5.502;2023-11-21T03:23:35;5.22;;;3.00;;
80677;SDS011;70042;52.494;5.502;2023-11-21T03:26:01;4.65;;;2.28;;
80677;SDS011;70042;52.494;5.502;2023-11-21T03:28:27;6.40;;;2.75;;
80677;SDS011;70042;52.494;5.502;2023-11-21T03:30:53;5.15;;;2.50;;
80677;SDS011;70042;52.494;5.502;2023-11-21T03:33:18;5.40;;;2.50;;
80677;SDS011;70042;52.494;5.502;2023-11-21T03:35:44;4.07;;;2.17;;
80677;SDS011;70042;52.494;5.502;2023-11-21T03:38:10;4.25;;;2.40;;
80677;SDS011;70042;52.494;5.502;2023-11-21T03:40:36;4.13;;;2.20;;
80677;SDS011;70042;52.494;5.502;2023-11-21T03:43:01;4.47;;;2.17;;
80677;SDS011;70042;52.494;5.502;2023-11-21T03:45:26;3.30;;;2.33;;
80677;SDS011;70042;52.494;5.502;2023-11-21T03:47:52;3.25;;;2.03;;
80677;SDS011;70042;52.494;5.502;2023-11-21T03:50:18;4.75;;;2.70;;
80677;SDS011;70042;52.494;5.502;2023-11-21T03:52:43;3.75;;;2.08;;
80677;SDS011;70042;52.494;5.502;2023-11-21T03:55:09;3.63;;;2.03;;
80677;SDS011;70042;52.494;5.502;2023-11-21T04:00:01;4.65;;;2.20;;
80677;SDS011;70042;52.494;5.502;2023-11-21T04:02:26;3.65;;;2.67;;
80677;SDS011;70042;52.494;5.502;2023-11-21T04:04:53;4.57;;;2.45;;
80677;SDS011;70042;52.494;5.502;2023-11-21T04:07:21;3.75;;;2.08;;
80677;SDS011;70042;52.494;5.502;2023-11-21T04:09:47;3.22;;;2.30;;
80677;SDS011;70042;52.494;5.502;2023-11-21T04:12:12;4.28;;;2.22;;
80677;SDS011;70042;52.494;5.502;2023-11-21T04:14:37;3.33;;;2.00;;
80677;SDS011;70042;52.494;5.502;2023-11-21T04:17:03;4.13;;;2.13;;
80677;SDS011;70042;52.494;5.502;2023-11-21T04:19:29;3.08;;;2.05;;
80677;SDS011;70042;52.494;5.502;2023-11-21T04:21:54;2.92;;;2.15;;
80677;SDS011;70042;52.494;5.502;2023-11-21T04:24:20;3.65;;;2.47;;
80677;SDS011;70042;52.494;5.502;2023-11-21T04:26:45;3.22;;;1.92;;
80677;SDS011;70042;52.494;5.502;2023-11-21T04:29:11;3.95;;;2.17;;
80677;SDS011;70042;52.494;5.502;2023-11-21T04:31:37;5.47;;;2.20;;
80677;SDS011;70042;52.494;5.502;2023-11-21T04:34:02;3.88;;;2.30;;
80677;SDS011;70042;52.494;5.502;2023-11-21T04:36:29;2.78;;;2.13;;
80677;SDS011;70042;52.494;5.502;2023-11-21T04:38:56;4.15;;;2.13;;
80677;SDS011;70042;52.494;5.502;2023-11-21T04:41:21;4.75;;;2.30;;
80677;SDS011;70042;52.494;5.502;2023-11-21T04:43:47;2.97;;;1.92;;
80677;SDS011;70042;52.494;5.502;2023-11-21T04:46:13;2.88;;;2.10;;
80677;SDS011;70042;52.494;5.502;2023-11-21T04:48:38;3.20;;;2.10;;
80677;SDS011;70042;52.494;5.502;2023-11-21T04:51:04;3.30;;;1.92;;
80677;SDS011;70042;52.494;5.502;2023-11-21T04:53:29;3.20;;;1.85;;
80677;SDS011;70042;52.494;5.502;2023-11-21T04:55:55;2.72;;;1.80;;
80677;SDS011;70042;52.494;5.502;2023-11-21T04:58:20;3.33;;;1.80;;
80677;SDS011;70042;52.494;5.502;2023-11-21T05:00:46;3.10;;;1.65;;
80677;SDS011;70042;52.494;5.502;2023-11-21T05:03:11;3.65;;;1.80;;
80677;SDS011;70042;52.494;5.502;2023-11-21T05:05:37;3.80;;;1.95;;
80677;SDS011;70042;52.494;5.502;2023-11-21T05:08:02;5.13;;;2.10;;
80677;SDS011;70042;52.494;5.502;2023-11-21T05:10:28;3.47;;;1.88;;
80677;SDS011;70042;52.494;5.502;2023-11-21T05:12:55;3.33;;;1.83;;
80677;SDS011;70042;52.494;5.502;2023-11-21T05:15:20;3.13;;;1.83;;
80677;SDS011;70042;52.494;5.502;2023-11-21T05:17:46;3.13;;;2.33;;
80677;SDS011;70042;52.494;5.502;2023-11-21T05:20:14;2.47;;;1.58;;
80677;SDS011;70042;52.494;5.502;2023-11-21T05:22:45;2.05;;;1.35;;
80677;SDS011;70042;52.494;5.502;2023-11-21T05:25:11;2.85;;;1.70;;
80677;SDS011;70042;52.494;5.502;2023-11-21T05:30:02;2.85;;;1.70;;
80677;SDS011;70042;52.494;5.502;2023-11-21T05:32:32;2.95;;;1.75;;
80677;SDS011;70042;52.494;5.502;2023-11-21T05:34:58;2.33;;;1.42;;
80677;SDS011;70042;52.494;5.502;2023-11-21T05:39:51;2.70;;;2.00;;
80677;SDS011;70042;52.494;5.502;2023-11-21T05:44:43;2.93;;;1.40;;
80677;SDS011;70042;52.494;5.502;2023-11-21T05:47:09;3.20;;;1.45;;
80677;SDS011;70042;52.494;5.502;2023-11-21T05:49:34;2.47;;;1.63;;
80677;SDS011;70042;52.494;5.502;2023-11-21T05:52:00;2.33;;;1.45;;
80677;SDS011;70042;52.494;5.502;2023-11-21T05:54:26;1.63;;;1.30;;
80677;SDS011;70042;52.494;5.502;2023-11-21T05:56:51;2.67;;;1.65;;
80677;SDS011;70042;52.494;5.502;2023-11-21T05:59:17;2.88;;;1.35;;
80677;SDS011;70042;52.494;5.502;2023-11-21T06:01:42;2.25;;;1.35;;
80677;SDS011;70042;52.494;5.502;2023-11-21T06:04:08;2.83;;;1.42;;
80677;SDS011;70042;52.494;5.502;2023-11-21T06:06:34;2.40;;;1.58;;
80677;SDS011;70042;52.494;5.502;2023-11-21T06:09:00;3.58;;;1.40;;
80677;SDS011;70042;52.494;5.502;2023-11-21T06:11:26;1.85;;;1.25;;
80677;SDS011;70042;52.494;5.502;2023-11-21T06:13:51;2.40;;;1.85;;
80677;SDS011;70042;52.494;5.502;2023-11-21T06:16:18;2.30;;;1.40;;
80677;SDS011;70042;52.494;5.502;2023-11-21T06:18:47;2.20;;;1.25;;
80677;SDS011;70042;52.494;5.502;2023-11-21T06:21:12;1.83;;;1.20;;
80677;SDS011;70042;52.494;5.502;2023-11-21T06:23:39;2.03;;;1.35;;
80677;SDS011;70042;52.494;5.502;2023-11-21T06:26:06;1.33;;;0.85;;
80677;SDS011;70042;52.494;5.502;2023-11-21T06:28:31;2.03;;;1.25;;
80677;SDS011;70042;52.494;5.502;2023-11-21T06:30:57;1.88;;;1.30;;
80677;SDS011;70042;52.494;5.502;2023-11-21T06:33:23;2.45;;;0.93;;
80677;SDS011;70042;52.494;5.502;2023-11-21T06:35:52;2.40;;;1.30;;
80677;SDS011;70042;52.494;5.502;2023-11-21T06:38:17;2.58;;;1.27;;
80677;SDS011;70042;52.494;5.502;2023-11-21T06:40:43;2.70;;;1.30;;
80677;SDS011;70042;52.494;5.502;2023-11-21T06:43:10;2.20;;;1.23;;
80677;SDS011;70042;52.494;5.502;2023-11-21T06:45:36;2.33;;;1.20;;
80677;SDS011;70042;52.494;5.502;2023-11-21T06:48:01;2.05;;;1.30;;
80677;SDS011;70042;52.494;5.502;2023-11-21T06:50:26;3.00;;;1.50;;
80677;SDS011;70042;52.494;5.502;2023-11-21T06:52:52;1.98;;;1.15;;
80677;SDS011;70042;52.494;5.502;2023-11-21T06:55:18;2.97;;;1.00;;
80677;SDS011;70042;52.494;5.502;2023-11-21T06:57:43;1.85;;;1.15;;
80677;SDS011;70042;52.494;5.502;2023-11-21T07:00:09;1.73;;;0.80;;
80677;SDS011;70042;52.494;5.502;2023-11-21T07:02:36;2.42;;;1.02;;
80677;SDS011;70042;52.494;5.502;2023-11-21T07:05:02;2.05;;;1.15;;
80677;SDS011;70042;52.494;5.502;2023-11-21T07:07:27;1.75;;;1.00;;
80677;SDS011;70042;52.494;5.502;2023-11-21T07:09:53;1.27;;;0.88;;
80677;SDS011;70042;52.494;5.502;2023-11-21T07:12:19;2.00;;;1.00;;
80677;SDS011;70042;52.494;5.502;2023-11-21T07:14:44;1.73;;;0.80;;
80677;SDS011;70042;52.494;5.502;2023-11-21T07:17:11;1.58;;;1.02;;
80677;SDS011;70042;52.494;5.502;2023-11-21T07:19:39;1.35;;;0.95;;
80677;SDS011;70042;52.494;5.502;2023-11-21T07:22:06;1.77;;;1.08;;
80677;SDS011;70042;52.494;5.502;2023-11-21T07:24:32;1.42;;;1.02;;
80677;SDS011;70042;52.494;5.502;2023-11-21T07:26:57;1.88;;;0.90;;
80677;SDS011;70042;52.494;5.502;2023-11-21T07:29:24;2.40;;;1.02;;
80677;SDS011;70042;52.494;5.502;2023-11-21T07:31:54;1.75;;;0.98;;
80677;SDS011;70042;52.494;5.502;2023-11-21T07:34:20;1.48;;;0.70;;
80677;SDS011;70042;52.494;5.502;2023-11-21T07:36:46;1.50;;;0.88;;
80677;SDS011;70042;52.494;5.502;2023-11-21T07:39:12;1.20;;;0.80;;
80677;SDS011;70042;52.494;5.502;2023-11-21T07:44:10;3.17;;;0.80;;
80677;SDS011;70042;52.494;5.502;2023-11-21T07:46:35;1.88;;;0.95;;
80677;SDS011;70042;52.494;5.502;2023-11-21T07:49:01;1.60;;;0.80;;
80677;SDS011;70042;52.494;5.502;2023-11-21T07:51:26;1.50;;;0.75;;
80677;SDS011;70042;52.494;5.502;2023-11-21T07:53:51;2.85;;;0.80;;
80677;SDS011;70042;52.494;5.502;2023-11-21T07:56:17;2.47;;;1.00;;
80677;SDS011;70042;52.494;5.502;2023-11-21T07:58:43;2.13;;;0.90;;
80677;SDS011;70042;52.494;5.502;2023-11-21T08:01:09;2.20;;;0.63;;
80677;SDS011;70042;52.494;5.502;2023-11-21T08:03:35;1.80;;;1.00;;
80677;SDS011;70042;52.494;5.502;2023-11-21T08:06:00;1.23;;;0.70;;
80677;SDS011;70042;52.494;5.502;2023-11-21T08:08:28;2.05;;;1.00;;
80677;SDS011;70042;52.494;5.502;2023-11-21T08:10:53;1.08;;;0.73;;
80677;SDS011;70042;52.494;5.502;2023-11-21T08:13:23;1.30;;;0.80;;
80677;SDS011;70042;52.494;5.502;2023-11-21T08:15:48;1.95;;;0.90;;
80677;SDS011;70042;52.494;5.502;2023-11-21T08:18:14;1.13;;;0.63;;
80677;SDS011;70042;52.494;5.502;2023-11-21T08:20:40;1.52;;;0.80;;
80677;SDS011;70042;52.494;5.502;2023-11-21T08:23:06;1.00;;;0.60;;
80677;SDS011;70042;52.494;5.502;2023-11-21T08:25:33;1.15;;;0.90;;
80677;SDS011;70042;52.494;5.502;2023-11-21T08:27:59;2.60;;;0.70;;
80677;SDS011;70042;52.494;5.502;2023-11-21T08:30:25;1.35;;;0.60;;
80677;SDS011;70042;52.494;5.502;2023-11-21T08:32:54;1.33;;;0.80;;
80677;SDS011;70042;52.494;5.502;2023-11-21T08:35:23;1.30;;;0.93;;
80677;SDS011;70042;52.494;5.502;2023-11-21T08:40:16;2.05;;;0.63;;
80677;SDS011;70042;52.494;5.502;2023-11-21T08:42:42;2.10;;;0.93;;
80677;SDS011;70042;52.494;5.502;2023-11-21T08:45:08;1.60;;;0.88;;
80677;SDS011;70042;52.494;5.502;2023-11-21T08:49:59;1.65;;;0.80;;
80677;SDS011;70042;52.494;5.502;2023-11-21T08:52:25;1.23;;;0.85;;
80677;SDS011;70042;52.494;5.502;2023-11-21T08:54:51;1.90;;;0.60;;
80677;SDS011;70042;52.494;5.502;2023-11-21T08:57:24;1.05;;;0.65;;
80677;SDS011;70042;52.494;5.502;2023-11-21T08:59:50;1.10;;;0.73;;
80677;SDS011;70042;52.494;5.502;2023-11-21T09:02:25;1.08;;;0.63;;
80677;SDS011;70042;52.494;5.502;2023-11-21T09:04:51;1.42;;;0.70;;
80677;SDS011;70042;52.494;5.502;2023-11-21T09:07:17;1.73;;;0.80;;
80677;SDS011;70042;52.494;5.502;2023-11-21T09:09:48;0.95;;;0.65;;
80677;SDS011;70042;52.494;5.502;2023-11-21T09:12:14;1.40;;;0.88;;
80677;SDS011;70042;52.494;5.502;2023-11-21T09:14:41;1.27;;;0.68;;
80677;SDS011;70042;52.494;5.502;2023-11-21T09:17:07;1.90;;;0.65;;
80677;SDS011;70042;52.494;5.502;2023-11-21T09:19:36;1.08;;;0.70;;
80677;SDS011;70042;52.494;5.502;2023-11-21T09:22:02;1.65;;;0.60;;
80677;SDS011;70042;52.494;5.502;2023-11-21T09:24:28;1.27;;;0.68;;
80677;SDS011;70042;52.494;5.502;2023-11-21T09:26:53;1.63;;;0.65;;
80677;SDS011;70042;52.494;5.502;2023-11-21T09:29:19;0.90;;;0.60;;
80677;SDS011;70042;52.494;5.502;2023-11-21T09:31:44;0.90;;;0.60;;
80677;SDS011;70042;52.494;5.502;2023-11-21T09:34:10;1.13;;;0.70;;
80677;SDS011;70042;52.494;5.502;2023-11-21T09:36:37;1.00;;;0.68;;
80677;SDS011;70042;52.494;5.502;2023-11-21T09:39:04;1.30;;;0.60;;
80677;SDS011;70042;52.494;5.502;2023-11-21T09:44:04;1.75;;;0.60;;
80677;SDS011;70042;52.494;5.502;2023-11-21T09:46:36;0.73;;;0.43;;
80677;SDS011;70042;52.494;5.502;2023-11-21T09:49:04;2.25;;;0.70;;
80677;SDS011;70042;52.494;5.502;2023-11-21T09:51:37;1.00;;;0.70;;
80677;SDS011;70042;52.494;5.502;2023-11-21T09:54:07;1.00;;;0.68;;
80677;SDS011;70042;52.494;5.502;2023-11-21T09:56:35;1.52;;;0.60;;
80677;SDS011;70042;52.494;5.502;2023-11-21T09:59:02;0.63;;;0.50;;
80677;SDS011;70042;52.494;5.502;2023-11-21T10:01:32;0.95;;;0.63;;
80677;SDS011;70042;52.494;5.502;2023-11-21T10:03:58;1.73;;;0.80;;
80677;SDS011;70042;52.494;5.502;2023-11-21T10:06:24;1.48;;;0.65;;
80677;SDS011;70042;52.494;5.502;2023-11-21T10:08:52;2.13;;;0.80;;
80677;SDS011;70042;52.494;5.502;2023-11-21T10:11:22;0.90;;;0.50;;
80677;SDS011;70042;52.494;5.502;2023-11-21T10:13:52;1.45;;;0.90;;
80677;SDS011;70042;52.494;5.502;2023-11-21T10:16:19;1.95;;;0.60;;
80677;SDS011;70042;52.494;5.502;2023-11-21T10:18:48;1.27;;;0.60;;
80677;SDS011;70042;52.494;5.502;2023-11-21T10:21:18;1.40;;;0.80;;
80677;SDS011;70042;52.494;5.502;2023-11-21T10:23:43;1.48;;;0.52;;
80677;SDS011;70042;52.494;5.502;2023-11-21T10:26:09;1.75;;;0.70;;
80677;SDS011;70042;52.494;5.502;2023-11-21T10:28:43;6.07;;;1.77;;
80677;SDS011;70042;52.494;5.502;2023-11-21T10:31:21;8.63;;;3.17;;
80677;SDS011;70042;52.494;5.502;2023-11-21T10:33:49;6.63;;;2.00;;
80677;SDS011;70042;52.494;5.502;2023-11-21T10:36:24;7.22;;;2.55;;
80677;SDS011;70042;52.494;5.502;2023-11-21T10:38:53;154.15;;;82.25;;
80677;SDS011;70042;52.494;5.502;2023-11-21T10:41:22;72.93;;;34.90;;
80677;SDS011;70042;52.494;5.502;2023-11-21T10:43:47;37.22;;;20.75;;
80677;SDS011;70042;52.494;5.502;2023-11-21T10:46:14;37.65;;;18.77;;
80677;SDS011;70042;52.494;5.502;2023-11-21T10:48:43;35.65;;;16.48;;
80677;SDS011;70042;52.494;5.502;2023-11-21T10:51:09;28.65;;;16.60;;
80677;SDS011;70042;52.494;5.502;2023-11-21T10:53:38;35.40;;;17.35;;
80677;SDS011;70042;52.494;5.502;2023-11-21T10:56:05;30.02;;;15.88;;
80677;SDS011;70042;52.494;5.502;2023-11-21T10:58:33;31.05;;;15.90;;
80677;SDS011;70042;52.494;5.502;2023-11-21T11:01:01;24.48;;;16.17;;
80677;SDS011;70042;52.494;5.502;2023-11-21T11:03:31;25.42;;;14.45;;
80677;SDS011;70042;52.494;5.502;2023-11-21T11:05:58;25.65;;;14.10;;
80677;SDS011;70042;52.494;5.502;2023-11-21T11:08:25;27.00;;;14.82;;
80677;SDS011;70042;52.494;5.502;2023-11-21T11:10:52;25.83;;;13.70;;
80677;SDS011;70042;52.494;5.502;2023-11-21T11:13:18;30.63;;;14.48;;
80677;SDS011;70042;52.494;5.502;2023-11-21T11:15:46;25.52;;;14.07;;
80677;SDS011;70042;52.494;5.502;2023-11-21T11:18:13;24.77;;;12.45;;
80677;SDS011;70042;52.494;5.502;2023-11-21T11:20:39;26.13;;;13.57;;
80677;SDS011;70042;52.494;5.502;2023-11-21T11:29:05;19.75;;;11.15;;
80677;SDS011;70042;52.494;5.502;2023-11-21T11:34:23;19.58;;;10.45;;
80677;SDS011;70042;52.494;5.502;2023-11-21T11:37:06;18.98;;;10.25;;
80677;SDS011;70042;52.494;5.502;2023-11-21T11:39:36;19.08;;;9.82;;
80677;SDS011;70042;52.494;5.502;2023-11-21T11:42:12;17.92;;;9.35;;
80677;SDS011;70042;52.494;5.502;2023-11-21T11:47:29;21.02;;;8.85;;
80677;SDS011;70042;52.494;5.502;2023-11-21T11:50:06;18.83;;;8.95;;
80677;SDS011;70042;52.494;5.502;2023-11-21T11:52:45;15.45;;;8.70;;
80677;SDS011;70042;52.494;5.502;2023-11-21T11:55:13;17.33;;;8.57;;
80677;SDS011;70042;52.494;5.502;2023-11-21T11:57:41;15.60;;;8.25;;
80677;SDS011;70042;52.494;5.502;2023-11-21T12:03:07;12.63;;;6.97;;
80677;SDS011;70042;52.494;5.502;2023-11-21T12:05:34;15.68;;;7.82;;
80677;SDS011;70042;52.494;5.502;2023-11-21T12:08:04;15.77;;;7.50;;
80677;SDS011;70042;52.494;5.502;2023-11-21T12:10:32;12.55;;;7.22;;
80677;SDS011;70042;52.494;5.502;2023-11-21T12:13:08;13.45;;;7.00;;
80677;SDS011;70042;52.494;5.502;2023-11-21T12:15:37;14.98;;;7.00;;
80677;SDS011;70042;52.494;5.502;2023-11-21T12:18:03;15.60;;;7.35;;
80677;SDS011;70042;52.494;5.502;2023-11-21T12:20:29;12.10;;;6.25;;
80677;SDS011;70042;52.494;5.502;2023-11-21T12:22:57;16.73;;;6.45;;
80677;SDS011;70042;52.494;5.502;2023-11-21T12:25:27;10.35;;;6.05;;
80677;SDS011;70042;52.494;5.502;2023-11-21T12:27:54;10.55;;;5.47;;
80677;SDS011;70042;52.494;5.502;2023-11-21T12:30:22;10.35;;;6.05;;
80677;SDS011;70042;52.494;5.502;2023-11-21T12:32:52;11.20;;;5.88;;
80677;SDS011;70042;52.494;5.502;2023-11-21T12:35:19;8.77;;;4.60;;
80677;SDS011;70042;52.494;5.502;2023-11-21T12:37:46;9.63;;;5.80;;
80677;SDS011;70042;52.494;5.502;2023-11-21T12:40:13;9.40;;;4.97;;
80677;SDS011;70042;52.494;5.502;2023-11-21T12:42:46;8.65;;;5.18;;
80677;SDS011;70042;52.494;5.502;2023-11-21T12:47:45;7.13;;;4.47;;
80677;SDS011;70042;52.494;5.502;2023-11-21T12:50:37;11.23;;;4.93;;
80677;SDS011;70042;52.494;5.502;2023-11-21T12:53:06;7.78;;;4.57;;
80677;SDS011;70042;52.494;5.502;2023-11-21T12:55:34;7.90;;;3.90;;
80677;SDS011;70042;52.494;5.502;2023-11-21T12:58:03;6.75;;;3.72;;
80677;SDS011;70042;52.494;5.502;2023-11-21T13:03:08;9.43;;;4.78;;
80677;SDS011;70042;52.494;5.502;2023-11-21T13:05:38;6.35;;;3.90;;
80677;SDS011;70042;52.494;5.502;2023-11-21T13:08:06;7.57;;;4.57;;
80677;SDS011;70042;52.494;5.502;2023-11-21T13:10:33;7.82;;;3.70;;
80677;SDS011;70042;52.494;5.502;2023-11-21T13:13:02;8.43;;;3.90;;
80677;SDS011;70042;52.494;5.502;2023-11-21T13:15:31;7.15;;;4.00;;
80677;SDS011;70042;52.494;5.502;2023-11-21T13:17:58;9.38;;;4.40;;
80677;SDS011;70042;52.494;5.502;2023-11-21T13:22:54;7.18;;;3.47;;
80677;SDS011;70042;52.494;5.502;2023-11-21T13:25:28;6.15;;;3.38;;
80677;SDS011;70042;52.494;5.502;2023-11-21T13:30:19;7.25;;;4.10;;
80677;SDS011;70042;52.494;5.502;2023-11-21T13:32:51;5.30;;;3.08;;
80677;SDS011;70042;52.494;5.502;2023-11-21T13:35:17;5.75;;;3.55;;
80677;SDS011;70042;52.494;5.502;2023-11-21T13:37:51;6.20;;;3.03;;
80677;SDS011;70042;52.494;5.502;2023-11-21T13:40:20;6.45;;;3.72;;
80677;SDS011;70042;52.494;5.502;2023-11-21T13:42:52;6.22;;;3.05;;
80677;SDS011;70042;52.494;5.502;2023-11-21T13:45:21;5.97;;;3.50;;
80677;SDS011;70042;52.494;5.502;2023-11-21T13:47:48;7.32;;;3.60;;
80677;SDS011;70042;52.494;5.502;2023-11-21T13:50:16;5.00;;;3.30;;
80677;SDS011;70042;52.494;5.502;2023-11-21T13:52:51;4.90;;;3.35;;
80677;SDS011;70042;52.494;5.502;2023-11-21T13:55:18;9.38;;;3.78;;
80677;SDS011;70042;52.494;5.502;2023-11-21T13:57:44;7.47;;;3.60;;
80677;SDS011;70042;52.494;5.502;2023-11-21T14:00:12;5.78;;;3.47;;
80677;SDS011;70042;52.494;5.502;2023-11-21T14:02:57;6.85;;;3.50;;
80677;SDS011;70042;52.494;5.502;2023-11-21T14:05:25;6.60;;;3.35;;
80677;SDS011;70042;52.494;5.502;2023-11-21T14:07:57;6.47;;;3.40;;
80677;SDS011;70042;52.494;5.502;2023-11-21T14:10:30;7.15;;;3.03;;
80677;SDS011;70042;52.494;5.502;2023-11-21T14:13:05;5.95;;;2.75;;
80677;SDS011;70042;52.494;5.502;2023-11-21T14:15:31;4.25;;;2.83;;
80677;SDS011;70042;52.494;5.502;2023-11-21T14:17:58;5.20;;;3.03;;
80677;SDS011;70042;52.494;5.502;2023-11-21T14:20:27;6.25;;;3.03;;
80677;SDS011;70042;52.494;5.502;2023-11-21T14:22:54;6.32;;;3.30;;
80677;SDS011;70042;52.494;5.502;2023-11-21T14:25:19;6.38;;;2.65;;
80677;SDS011;70042;52.494;5.502;2023-11-21T14:27:47;5.00;;;2.92;;
80677;SDS011;70042;52.494;5.502;2023-11-21T14:30:13;5.13;;;2.72;;
80677;SDS011;70042;52.494;5.502;2023-11-21T14:32:43;5.28;;;2.58;;
80677;SDS011;70042;52.494;5.502;2023-11-21T14:35:08;5.55;;;3.08;;
80677;SDS011;70042;52.494;5.502;2023-11-21T14:37:34;5.18;;;2.88;;
80677;SDS011;70042;52.494;5.502;2023-11-21T14:42:26;3.67;;;2.50;;
80677;SDS011;70042;52.494;5.502;2023-11-21T14:44:55;5.18;;;3.20;;
80677;SDS011;70042;52.494;5.502;2023-11-21T14:50:50;5.00;;;2.85;;
80677;SDS011;70042;52.494;5.502;2023-11-21T14:53:28;6.00;;;2.88;;
80677;SDS011;70042;52.494;5.502;2023-11-21T14:56:18;7.15;;;3.17;;
80677;SDS011;70042;52.494;5.502;2023-11-21T14:58:58;5.63;;;3.20;;
80677;SDS011;70042;52.494;5.502;2023-11-21T15:01:30;5.85;;;2.75;;
80677;SDS011;70042;52.494;5.502;2023-11-21T15:04:09;4.30;;;3.28;;
80677;SDS011;70042;52.494;5.502;2023-11-21T15:06:48;5.22;;;2.83;;
80677;SDS011;70042;52.494;5.502;2023-11-21T15:09:15;6.05;;;2.85;;
80677;SDS011;70042;52.494;5.502;2023-11-21T15:11:43;4.43;;;2.92;;
80677;SDS011;70042;52.494;5.502;2023-11-21T15:14:09;3.65;;;2.33;;
80677;SDS011;70042;52.494;5.502;2023-11-21T15:16:38;3.72;;;2.53;;
80677;SDS011;70042;52.494;5.502;2023-11-21T15:19:10;3.72;;;2.67;;
80677;SDS011;70042;52.494;5.502;2023-11-21T15:21:42;3.08;;;2.17;;
80677;SDS011;70042;52.494;5.502;2023-11-21T15:24:09;4.28;;;2.33;;
80677;SDS011;70042;52.494;5.502;2023-11-21T15:26:36;3.60;;;2.47;;
80677;SDS011;70042;52.494;5.502;2023-11-21T15:29:01;3.78;;;2.35;;
80677;SDS011;70042;52.494;5.502;2023-11-21T15:31:26;5.40;;;2.58;;
80677;SDS011;70042;52.494;5.502;2023-11-21T15:33:52;4.65;;;2.80;;
80677;SDS011;70042;52.494;5.502;2023-11-21T15:36:19;5.28;;;2.72;;
80677;SDS011;70042;52.494;5.502;2023-11-21T15:38:44;6.95;;;3.47;;
80677;SDS011;70042;52.494;5.502;2023-11-21T15:41:10;5.80;;;3.03;;